EDQM

Hof-Plauen Airport

Hof, Germany
METAR EDQM 181750Z 02011KT 6000 NSC M04/M07 Q1022
Observed Flight Rules
Nov-18 @ 17:50 UTC (8 hours ago) Marginal Visual Flight Rules
Wind Visibility Clouds
20° at 11 knots 6,003 meters
  • Clear skies
Temperatures Readings
Current -4°C / 25°F
Dewpoint -7°C / 19°F
Humidity 80%
Altimeter 30.18" Hg
Pressure 1022 hPa
Elevation 568
METAR EDQM 181750Z 02011KT 6000 NSC M04/M07 Q1022
Observed Flight Rules
Nov-18 @ 17:50 UTC
(8 hours ago)
MVFR
Wind Visibility
20° at 11 knots 6,003 meters
Clouds
  • Clear skies
Temperature Dewpoint
-4°C / 25°F -7°C / 19°F
Humidity Altimeter Pressure
80% 30.18" Hg 1022 hPa